sensor_id;sensor_type;location;lat;lon;timestamp;temperature;humidity
66312;HTU21D;53114;51.138;6.008;2022-08-01T00:01:57;21.14;118.99
66312;HTU21D;53114;51.138;6.008;2022-08-01T00:04:23;21.13;118.99
66312;HTU21D;53114;51.138;6.008;2022-08-01T00:06:49;21.15;118.99
66312;HTU21D;53114;51.138;6.008;2022-08-01T00:09:15;21.16;118.99
66312;HTU21D;53114;51.138;6.008;2022-08-01T00:11:40;21.18;118.99
66312;HTU21D;53114;51.138;6.008;2022-08-01T00:14:08;21.19;118.99
66312;HTU21D;53114;51.138;6.008;2022-08-01T00:16:35;21.23;118.99
66312;HTU21D;53114;51.138;6.008;2022-08-01T00:19:01;21.27;118.99
66312;HTU21D;53114;51.138;6.008;2022-08-01T00:21:27;21.30;118.99
66312;HTU21D;53114;51.138;6.008;2022-08-01T00:23:53;21.33;118.99
66312;HTU21D;53114;51.138;6.008;2022-08-01T00:26:20;21.38;118.99
66312;HTU21D;53114;51.138;6.008;2022-08-01T00:28:46;21.39;118.99
66312;HTU21D;53114;51.138;6.008;2022-08-01T00:31:12;21.39;118.99
66312;HTU21D;53114;51.138;6.008;2022-08-01T00:33:37;21.42;118.99
66312;HTU21D;53114;51.138;6.008;2022-08-01T00:36:03;21.40;118.99
66312;HTU21D;53114;51.138;6.008;2022-08-01T00:38:29;21.44;118.99
66312;HTU21D;53114;51.138;6.008;2022-08-01T00:40:56;21.46;118.99
66312;HTU21D;53114;51.138;6.008;2022-08-01T00:43:22;21.47;118.99
66312;HTU21D;53114;51.138;6.008;2022-08-01T00:45:48;21.51;118.99
66312;HTU21D;53114;51.138;6.008;2022-08-01T00:48:13;21.52;118.99
66312;HTU21D;53114;51.138;6.008;2022-08-01T00:50:40;21.55;118.87
66312;HTU21D;53114;51.138;6.008;2022-08-01T00:53:05;21.61;118.63
66312;HTU21D;53114;51.138;6.008;2022-08-01T00:55:32;21.63;118.40
66312;HTU21D;53114;51.138;6.008;2022-08-01T00:57:58;21.65;118.18
66312;HTU21D;53114;51.138;6.008;2022-08-01T01:00:24;21.66;118.16
66312;HTU21D;53114;51.138;6.008;2022-08-01T01:02:50;21.66;117.66
66312;HTU21D;53114;51.138;6.008;2022-08-01T01:05:16;21.67;117.91
66312;HTU21D;53114;51.138;6.008;2022-08-01T01:08:08;21.68;117.86
66312;HTU21D;53114;51.138;6.008;2022-08-01T01:10:47;21.68;117.50
66312;HTU21D;53114;51.138;6.008;2022-08-01T01:13:32;21.66;117.55
66312;HTU21D;53114;51.138;6.008;2022-08-01T01:16:21;21.64;117.25
66312;HTU21D;53114;51.138;6.008;2022-08-01T01:18:57;21.61;117.47
66312;HTU21D;53114;51.138;6.008;2022-08-01T01:24:17;21.57;117.65
66312;HTU21D;53114;51.138;6.008;2022-08-01T01:27:06;21.57;117.59
66312;HTU21D;53114;51.138;6.008;2022-08-01T01:32:09;21.60;117.83
66312;HTU21D;53114;51.138;6.008;2022-08-01T01:34:42;21.60;117.40
66312;HTU21D;53114;51.138;6.008;2022-08-01T01:37:14;21.57;117.52
66312;HTU21D;53114;51.138;6.008;2022-08-01T01:39:42;21.57;117.54
66312;HTU21D;53114;51.138;6.008;2022-08-01T01:42:09;21.58;117.37
66312;HTU21D;53114;51.138;6.008;2022-08-01T01:44:38;21.53;117.55
66312;HTU21D;53114;51.138;6.008;2022-08-01T01:47:05;21.51;117.51
66312;HTU21D;53114;51.138;6.008;2022-08-01T01:49:33;21.48;117.60
66312;HTU21D;53114;51.138;6.008;2022-08-01T01:52:01;21.46;117.57
66312;HTU21D;53114;51.138;6.008;2022-08-01T01:54:33;21.49;117.58
66312;HTU21D;53114;51.138;6.008;2022-08-01T01:57:03;21.48;117.31
66312;HTU21D;53114;51.138;6.008;2022-08-01T01:59:34;21.51;117.35
66312;HTU21D;53114;51.138;6.008;2022-08-01T02:02:03;21.54;117.14
66312;HTU21D;53114;51.138;6.008;2022-08-01T02:04:32;21.58;116.92
66312;HTU21D;53114;51.138;6.008;2022-08-01T02:06:59;21.55;116.74
66312;HTU21D;53114;51.138;6.008;2022-08-01T02:09:28;21.52;116.87
66312;HTU21D;53114;51.138;6.008;2022-08-01T02:11:56;21.53;116.82
66312;HTU21D;53114;51.138;6.008;2022-08-01T02:14:24;21.51;117.03
66312;HTU21D;53114;51.138;6.008;2022-08-01T02:16:56;21.55;117.50
66312;HTU21D;53114;51.138;6.008;2022-08-01T02:19:22;21.53;117.19
66312;HTU21D;53114;51.138;6.008;2022-08-01T02:21:55;21.50;117.59
66312;HTU21D;53114;51.138;6.008;2022-08-01T02:24:52;21.48;118.08
66312;HTU21D;53114;51.138;6.008;2022-08-01T02:27:33;21.47;118.27
66312;HTU21D;53114;51.138;6.008;2022-08-01T02:30:07;21.45;118.57
66312;HTU21D;53114;51.138;6.008;2022-08-01T02:32:46;21.43;118.77
66312;HTU21D;53114;51.138;6.008;2022-08-01T02:35:35;21.40;118.82
66312;HTU21D;53114;51.138;6.008;2022-08-01T02:38:05;21.42;118.72
66312;HTU21D;53114;51.138;6.008;2022-08-01T02:40:38;21.40;118.56
66312;HTU21D;53114;51.138;6.008;2022-08-01T02:43:08;21.39;118.85
66312;HTU21D;53114;51.138;6.008;2022-08-01T02:45:42;21.39;118.48
66312;HTU21D;53114;51.138;6.008;2022-08-01T02:48:12;21.38;118.47
66312;HTU21D;53114;51.138;6.008;2022-08-01T02:50:42;21.37;118.34
66312;HTU21D;53114;51.138;6.008;2022-08-01T02:53:11;21.37;118.32
66312;HTU21D;53114;51.138;6.008;2022-08-01T02:55:40;21.38;118.46
66312;HTU21D;53114;51.138;6.008;2022-08-01T02:58:09;21.38;118.24
66312;HTU21D;53114;51.138;6.008;2022-08-01T03:00:37;21.36;118.12
66312;HTU21D;53114;51.138;6.008;2022-08-01T03:03:05;21.34;118.11
66312;HTU21D;53114;51.138;6.008;2022-08-01T03:05:34;21.32;118.37
66312;HTU21D;53114;51.138;6.008;2022-08-01T03:08:02;21.30;118.44
66312;HTU21D;53114;51.138;6.008;2022-08-01T03:10:30;21.31;118.60
66312;HTU21D;53114;51.138;6.008;2022-08-01T03:13:00;21.33;118.50
66312;HTU21D;53114;51.138;6.008;2022-08-01T03:15:32;21.35;118.60
66312;HTU21D;53114;51.138;6.008;2022-08-01T03:18:01;21.38;118.28
66312;HTU21D;53114;51.138;6.008;2022-08-01T03:20:30;21.43;118.07
66312;HTU21D;53114;51.138;6.008;2022-08-01T03:23:01;21.46;117.65
66312;HTU21D;53114;51.138;6.008;2022-08-01T03:25:32;21.45;117.58
66312;HTU21D;53114;51.138;6.008;2022-08-01T03:28:03;21.45;117.87
66312;HTU21D;53114;51.138;6.008;2022-08-01T03:30:31;21.46;117.84
66312;HTU21D;53114;51.138;6.008;2022-08-01T03:32:58;21.47;117.76
66312;HTU21D;53114;51.138;6.008;2022-08-01T03:35:36;21.47;117.85
66312;HTU21D;53114;51.138;6.008;2022-08-01T03:38:05;21.48;117.79
66312;HTU21D;53114;51.138;6.008;2022-08-01T03:40:40;21.47;117.75
66312;HTU21D;53114;51.138;6.008;2022-08-01T03:43:12;21.45;118.18
66312;HTU21D;53114;51.138;6.008;2022-08-01T03:45:46;21.42;118.31
66312;HTU21D;53114;51.138;6.008;2022-08-01T03:48:17;21.37;118.84
66312;HTU21D;53114;51.138;6.008;2022-08-01T03:50:48;21.35;118.99
66312;HTU21D;53114;51.138;6.008;2022-08-01T03:53:20;21.33;118.99
66312;HTU21D;53114;51.138;6.008;2022-08-01T03:55:48;21.32;118.99
66312;HTU21D;53114;51.138;6.008;2022-08-01T03:58:15;21.33;118.99
66312;HTU21D;53114;51.138;6.008;2022-08-01T04:00:42;21.37;118.99
66312;HTU21D;53114;51.138;6.008;2022-08-01T04:03:11;21.37;118.99
66312;HTU21D;53114;51.138;6.008;2022-08-01T04:05:41;21.37;118.99
66312;HTU21D;53114;51.138;6.008;2022-08-01T04:08:08;21.36;118.99
66312;HTU21D;53114;51.138;6.008;2022-08-01T04:10:34;21.37;118.99
66312;HTU21D;53114;51.138;6.008;2022-08-01T04:13:00;21.38;118.99
66312;HTU21D;53114;51.138;6.008;2022-08-01T04:15:26;21.37;118.99
66312;HTU21D;53114;51.138;6.008;2022-08-01T04:17:52;21.38;118.99
66312;HTU21D;53114;51.138;6.008;2022-08-01T04:20:20;21.40;118.99
66312;HTU21D;53114;51.138;6.008;2022-08-01T04:22:46;21.40;118.99
66312;HTU21D;53114;51.138;6.008;2022-08-01T04:25:17;21.40;118.99
66312;HTU21D;53114;51.138;6.008;2022-08-01T04:27:47;21.36;118.99
66312;HTU21D;53114;51.138;6.008;2022-08-01T04:30:16;21.33;118.99
66312;HTU21D;53114;51.138;6.008;2022-08-01T04:32:45;21.30;118.99
66312;HTU21D;53114;51.138;6.008;2022-08-01T04:35:14;21.31;118.99
66312;HTU21D;53114;51.138;6.008;2022-08-01T04:37:46;21.31;118.99
66312;HTU21D;53114;51.138;6.008;2022-08-01T04:40:14;21.29;118.99
66312;HTU21D;53114;51.138;6.008;2022-08-01T04:42:42;21.29;118.99
66312;HTU21D;53114;51.138;6.008;2022-08-01T04:45:09;21.28;118.99
66312;HTU21D;53114;51.138;6.008;2022-08-01T04:47:36;21.25;118.99
66312;HTU21D;53114;51.138;6.008;2022-08-01T04:50:07;21.25;118.99
66312;HTU21D;53114;51.138;6.008;2022-08-01T04:52:35;21.27;118.99
66312;HTU21D;53114;51.138;6.008;2022-08-01T04:55:02;21.25;118.99
66312;HTU21D;53114;51.138;6.008;2022-08-01T04:57:29;21.28;118.99
66312;HTU21D;53114;51.138;6.008;2022-08-01T04:59:56;21.31;118.99
66312;HTU21D;53114;51.138;6.008;2022-08-01T05:02:24;21.33;118.99
66312;HTU21D;53114;51.138;6.008;2022-08-01T05:04:53;21.36;118.99
66312;HTU21D;53114;51.138;6.008;2022-08-01T05:07:20;21.38;118.99
66312;HTU21D;53114;51.138;6.008;2022-08-01T05:09:46;21.42;118.99
66312;HTU21D;53114;51.138;6.008;2022-08-01T05:12:12;21.45;118.99
66312;HTU21D;53114;51.138;6.008;2022-08-01T05:14:39;21.45;118.99
66312;HTU21D;53114;51.138;6.008;2022-08-01T05:17:07;21.49;118.99
66312;HTU21D;53114;51.138;6.008;2022-08-01T05:19:34;21.51;118.99
66312;HTU21D;53114;51.138;6.008;2022-08-01T05:22:02;21.57;118.99
66312;HTU21D;53114;51.138;6.008;2022-08-01T05:24:31;21.58;118.99
66312;HTU21D;53114;51.138;6.008;2022-08-01T05:26:59;21.61;118.99
66312;HTU21D;53114;51.138;6.008;2022-08-01T05:29:25;21.69;118.99
66312;HTU21D;53114;51.138;6.008;2022-08-01T05:31:52;21.74;118.99
66312;HTU21D;53114;51.138;6.008;2022-08-01T05:34:20;21.78;118.99
66312;HTU21D;53114;51.138;6.008;2022-08-01T05:36:46;21.78;118.99
66312;HTU21D;53114;51.138;6.008;2022-08-01T05:39:13;21.75;118.99
66312;HTU21D;53114;51.138;6.008;2022-08-01T05:41:40;21.73;118.99
66312;HTU21D;53114;51.138;6.008;2022-08-01T05:44:07;21.76;118.99
66312;HTU21D;53114;51.138;6.008;2022-08-01T05:46:34;21.79;118.99
66312;HTU21D;53114;51.138;6.008;2022-08-01T05:49:03;21.90;118.99
66312;HTU21D;53114;51.138;6.008;2022-08-01T05:51:29;21.97;118.99
66312;HTU21D;53114;51.138;6.008;2022-08-01T05:53:55;22.07;118.70
66312;HTU21D;53114;51.138;6.008;2022-08-01T05:56:21;22.17;117.72
66312;HTU21D;53114;51.138;6.008;2022-08-01T05:58:49;22.24;116.83
66312;HTU21D;53114;51.138;6.008;2022-08-01T06:01:16;22.26;116.38
66312;HTU21D;53114;51.138;6.008;2022-08-01T06:03:43;22.31;115.86
66312;HTU21D;53114;51.138;6.008;2022-08-01T06:06:09;22.35;115.12
66312;HTU21D;53114;51.138;6.008;2022-08-01T06:08:34;22.46;114.93
66312;HTU21D;53114;51.138;6.008;2022-08-01T06:11:00;22.56;113.95
66312;HTU21D;53114;51.138;6.008;2022-08-01T06:13:26;22.67;113.06
66312;HTU21D;53114;51.138;6.008;2022-08-01T06:15:53;22.73;112.25
66312;HTU21D;53114;51.138;6.008;2022-08-01T06:18:19;22.76;112.02
66312;HTU21D;53114;51.138;6.008;2022-08-01T06:20:46;22.73;111.82
66312;HTU21D;53114;51.138;6.008;2022-08-01T06:23:13;22.71;111.73
66312;HTU21D;53114;51.138;6.008;2022-08-01T06:25:41;22.75;111.29
66312;HTU21D;53114;51.138;6.008;2022-08-01T06:28:07;22.82;110.09
66312;HTU21D;53114;51.138;6.008;2022-08-01T06:30:33;22.85;109.91
66312;HTU21D;53114;51.138;6.008;2022-08-01T06:32:59;22.86;109.56
66312;HTU21D;53114;51.138;6.008;2022-08-01T06:35:27;22.84;109.33
66312;HTU21D;53114;51.138;6.008;2022-08-01T06:37:56;22.83;108.69
66312;HTU21D;53114;51.138;6.008;2022-08-01T06:40:22;22.84;108.42
66312;HTU21D;53114;51.138;6.008;2022-08-01T06:42:48;22.92;108.54
66312;HTU21D;53114;51.138;6.008;2022-08-01T06:45:14;23.09;108.01
66312;HTU21D;53114;51.138;6.008;2022-08-01T06:47:42;23.17;107.48
66312;HTU21D;53114;51.138;6.008;2022-08-01T06:50:09;23.24;106.63
66312;HTU21D;53114;51.138;6.008;2022-08-01T06:52:35;23.31;105.47
66312;HTU21D;53114;51.138;6.008;2022-08-01T06:55:02;23.46;103.68
66312;HTU21D;53114;51.138;6.008;2022-08-01T06:57:28;23.49;102.54
66312;HTU21D;53114;51.138;6.008;2022-08-01T06:59:54;23.41;102.42
66312;HTU21D;53114;51.138;6.008;2022-08-01T07:02:21;23.34;102.56
66312;HTU21D;53114;51.138;6.008;2022-08-01T07:04:47;23.25;102.94
66312;HTU21D;53114;51.138;6.008;2022-08-01T07:07:13;23.20;103.06
66312;HTU21D;53114;51.138;6.008;2022-08-01T07:09:39;23.17;103.23
66312;HTU21D;53114;51.138;6.008;2022-08-01T07:12:07;23.16;102.98
66312;HTU21D;53114;51.138;6.008;2022-08-01T07:14:33;23.12;103.05
66312;HTU21D;53114;51.138;6.008;2022-08-01T07:16:59;23.08;103.40
66312;HTU21D;53114;51.138;6.008;2022-08-01T07:19:25;23.03;103.49
66312;HTU21D;53114;51.138;6.008;2022-08-01T07:21:51;22.96;103.87
66312;HTU21D;53114;51.138;6.008;2022-08-01T07:24:17;23.00;104.31
66312;HTU21D;53114;51.138;6.008;2022-08-01T07:26:46;23.02;103.70
66312;HTU21D;53114;51.138;6.008;2022-08-01T07:29:12;23.03;103.52
66312;HTU21D;53114;51.138;6.008;2022-08-01T07:31:38;23.11;103.47
66312;HTU21D;53114;51.138;6.008;2022-08-01T07:34:04;23.20;102.86
66312;HTU21D;53114;51.138;6.008;2022-08-01T07:36:30;23.23;101.99
66312;HTU21D;53114;51.138;6.008;2022-08-01T07:38:56;23.20;101.93
66312;HTU21D;53114;51.138;6.008;2022-08-01T07:41:22;23.23;102.21
66312;HTU21D;53114;51.138;6.008;2022-08-01T07:43:48;23.35;101.67
66312;HTU21D;53114;51.138;6.008;2022-08-01T07:46:16;23.38;101.22
66312;HTU21D;53114;51.138;6.008;2022-08-01T07:48:42;23.43;101.22
66312;HTU21D;53114;51.138;6.008;2022-08-01T07:51:08;23.47;101.06
66312;HTU21D;53114;51.138;6.008;2022-08-01T07:53:36;23.52;100.78
66312;HTU21D;53114;51.138;6.008;2022-08-01T07:56:05;23.59;100.54
66312;HTU21D;53114;51.138;6.008;2022-08-01T07:58:32;23.72;99.25
66312;HTU21D;53114;51.138;6.008;2022-08-01T08:00:58;23.79;98.06
66312;HTU21D;53114;51.138;6.008;2022-08-01T08:03:24;23.88;97.98
66312;HTU21D;53114;51.138;6.008;2022-08-01T08:05:53;23.97;96.78
66312;HTU21D;53114;51.138;6.008;2022-08-01T08:08:19;23.95;96.35
66312;HTU21D;53114;51.138;6.008;2022-08-01T08:10:45;24.13;96.59
66312;HTU21D;53114;51.138;6.008;2022-08-01T08:13:11;24.41;94.07
66312;HTU21D;53114;51.138;6.008;2022-08-01T08:15:37;24.45;93.22
66312;HTU21D;53114;51.138;6.008;2022-08-01T08:18:03;24.35;92.81
66312;HTU21D;53114;51.138;6.008;2022-08-01T08:20:29;24.30;92.66
66312;HTU21D;53114;51.138;6.008;2022-08-01T08:22:56;24.26;93.36
66312;HTU21D;53114;51.138;6.008;2022-08-01T08:25:25;24.26;93.39
66312;HTU21D;53114;51.138;6.008;2022-08-01T08:27:52;24.32;93.27
66312;HTU21D;53114;51.138;6.008;2022-08-01T08:30:19;24.60;91.49
66312;HTU21D;53114;51.138;6.008;2022-08-01T08:32:45;25.02;89.41
66312;HTU21D;53114;51.138;6.008;2022-08-01T08:35:11;25.48;85.08
66312;HTU21D;53114;51.138;6.008;2022-08-01T08:37:38;25.56;82.98
66312;HTU21D;53114;51.138;6.008;2022-08-01T08:40:05;25.66;84.24
66312;HTU21D;53114;51.138;6.008;2022-08-01T08:42:32;27.23;78.07
66312;HTU21D;53114;51.138;6.008;2022-08-01T08:44:58;28.59;69.26
66312;HTU21D;53114;51.138;6.008;2022-08-01T08:47:25;30.84;58.95
66312;HTU21D;53114;51.138;6.008;2022-08-01T08:49:54;32.27;49.98
66312;HTU21D;53114;51.138;6.008;2022-08-01T08:52:22;31.72;49.83
66312;HTU21D;53114;51.138;6.008;2022-08-01T08:54:50;30.81;53.27
66312;HTU21D;53114;51.138;6.008;2022-08-01T08:57:19;30.65;56.16
66312;HTU21D;53114;51.138;6.008;2022-08-01T08:59:46;31.63;53.51
66312;HTU21D;53114;51.138;6.008;2022-08-01T09:02:12;32.99;47.64
66312;HTU21D;53114;51.138;6.008;2022-08-01T09:04:39;33.83;43.54
66312;HTU21D;53114;51.138;6.008;2022-08-01T09:07:06;33.57;42.81
66312;HTU21D;53114;51.138;6.008;2022-08-01T09:09:34;32.77;45.70
66312;HTU21D;53114;51.138;6.008;2022-08-01T09:12:00;31.66;49.47
66312;HTU21D;53114;51.138;6.008;2022-08-01T09:14:27;30.69;52.42
66312;HTU21D;53114;51.138;6.008;2022-08-01T09:17:09;29.73;55.98
66312;HTU21D;53114;51.138;6.008;2022-08-01T09:19:44;28.83;59.21
66312;HTU21D;53114;51.138;6.008;2022-08-01T09:22:16;29.41;60.43
66312;HTU21D;53114;51.138;6.008;2022-08-01T09:27:23;32.52;48.30
66312;HTU21D;53114;51.138;6.008;2022-08-01T09:29:52;33.62;43.87
66312;HTU21D;53114;51.138;6.008;2022-08-01T09:32:19;34.27;41.27
66312;HTU21D;53114;51.138;6.008;2022-08-01T09:34:45;34.09;39.95
66312;HTU21D;53114;51.138;6.008;2022-08-01T09:37:12;33.04;42.20
66312;HTU21D;53114;51.138;6.008;2022-08-01T09:39:43;33.03;43.65
66312;HTU21D;53114;51.138;6.008;2022-08-01T09:42:26;33.45;42.13
66312;HTU21D;53114;51.138;6.008;2022-08-01T09:44:53;32.64;43.69
66312;HTU21D;53114;51.138;6.008;2022-08-01T09:47:20;31.58;47.32
66312;HTU21D;53114;51.138;6.008;2022-08-01T09:49:54;30.59;51.22
66312;HTU21D;53114;51.138;6.008;2022-08-01T09:52:23;30.91;53.92
66312;HTU21D;53114;51.138;6.008;2022-08-01T09:54:55;32.75;46.55
66312;HTU21D;53114;51.138;6.008;2022-08-01T09:57:22;34.65;40.31
66312;HTU21D;53114;51.138;6.008;2022-08-01T09:59:49;36.24;35.55
66312;HTU21D;53114;51.138;6.008;2022-08-01T10:02:37;36.28;33.25
66312;HTU21D;53114;51.138;6.008;2022-08-01T10:05:06;34.79;35.30
66312;HTU21D;53114;51.138;6.008;2022-08-01T10:07:32;34.08;38.11
66312;HTU21D;53114;51.138;6.008;2022-08-01T10:10:14;34.31;36.33
66312;HTU21D;53114;51.138;6.008;2022-08-01T10:12:42;34.12;37.37
66312;HTU21D;53114;51.138;6.008;2022-08-01T10:15:09;35.16;35.82
66312;HTU21D;53114;51.138;6.008;2022-08-01T10:17:38;35.36;33.41
66312;HTU21D;53114;51.138;6.008;2022-08-01T10:20:05;34.29;34.28
66312;HTU21D;53114;51.138;6.008;2022-08-01T10:22:34;33.49;37.39
66312;HTU21D;53114;51.138;6.008;2022-08-01T10:25:04;33.46;37.38
66312;HTU21D;53114;51.138;6.008;2022-08-01T10:27:32;33.13;38.97
66312;HTU21D;53114;51.138;6.008;2022-08-01T10:30:01;32.53;40.41
66312;HTU21D;53114;51.138;6.008;2022-08-01T10:32:32;32.54;40.44
66312;HTU21D;53114;51.138;6.008;2022-08-01T10:34:59;32.47;39.91
66312;HTU21D;53114;51.138;6.008;2022-08-01T10:37:26;32.01;40.82
66312;HTU21D;53114;51.138;6.008;2022-08-01T10:39:54;32.13;42.74
66312;HTU21D;53114;51.138;6.008;2022-08-01T10:42:21;33.83;37.88
66312;HTU21D;53114;51.138;6.008;2022-08-01T10:44:48;35.09;33.26
66312;HTU21D;53114;51.138;6.008;2022-08-01T10:47:18;35.63;31.19
66312;HTU21D;53114;51.138;6.008;2022-08-01T10:49:51;34.95;32.13
66312;HTU21D;53114;51.138;6.008;2022-08-01T10:52:20;34.20;33.51
66312;HTU21D;53114;51.138;6.008;2022-08-01T10:54:46;34.51;34.70
66312;HTU21D;53114;51.138;6.008;2022-08-01T10:57:13;35.30;32.55
66312;HTU21D;53114;51.138;6.008;2022-08-01T10:59:50;35.47;33.14
66312;HTU21D;53114;51.138;6.008;2022-08-01T11:02:29;35.79;30.96
66312;HTU21D;53114;51.138;6.008;2022-08-01T11:07:53;33.67;34.00
66312;HTU21D;53114;51.138;6.008;2022-08-01T11:12:45;32.07;38.27
66312;HTU21D;53114;51.138;6.008;2022-08-01T11:17:45;31.36;39.69
66312;HTU21D;53114;51.138;6.008;2022-08-01T11:20:20;31.35;40.58
66312;HTU21D;53114;51.138;6.008;2022-08-01T11:28:23;33.73;33.63
66312;HTU21D;53114;51.138;6.008;2022-08-01T11:33:18;32.77;35.15
66312;HTU21D;53114;51.138;6.008;2022-08-01T11:44:00;31.45;38.03
66312;HTU21D;53114;51.138;6.008;2022-08-01T11:49:27;32.13;35.94
66312;HTU21D;53114;51.138;6.008;2022-08-01T11:54:40;31.30;37.75
66312;HTU21D;53114;51.138;6.008;2022-08-01T11:57:28;30.84;38.02
66312;HTU21D;53114;51.138;6.008;2022-08-01T11:59:59;30.44;38.62
66312;HTU21D;53114;51.138;6.008;2022-08-01T12:02:28;30.40;39.54
66312;HTU21D;53114;51.138;6.008;2022-08-01T12:04:58;30.60;38.67
66312;HTU21D;53114;51.138;6.008;2022-08-01T12:07:27;30.68;37.50
66312;HTU21D;53114;51.138;6.008;2022-08-01T12:10:14;30.65;36.85
66312;HTU21D;53114;51.138;6.008;2022-08-01T12:12:55;30.59;36.59
66312;HTU21D;53114;51.138;6.008;2022-08-01T12:15:24;30.35;37.01
66312;HTU21D;53114;51.138;6.008;2022-08-01T12:17:58;30.23;37.41
66312;HTU21D;53114;51.138;6.008;2022-08-01T12:20:27;30.13;37.21
66312;HTU21D;53114;51.138;6.008;2022-08-01T12:22:55;30.05;37.88
66312;HTU21D;53114;51.138;6.008;2022-08-01T12:25:21;30.09;37.47
66312;HTU21D;53114;51.138;6.008;2022-08-01T12:27:48;30.12;37.48
66312;HTU21D;53114;51.138;6.008;2022-08-01T12:30:20;29.98;37.25
66312;HTU21D;53114;51.138;6.008;2022-08-01T12:32:52;29.91;36.88
66312;HTU21D;53114;51.138;6.008;2022-08-01T12:35:22;29.80;36.84
66312;HTU21D;53114;51.138;6.008;2022-08-01T12:37:50;29.71;36.82
66312;HTU21D;53114;51.138;6.008;2022-08-01T12:40:25;29.73;37.46
66312;HTU21D;53114;51.138;6.008;2022-08-01T12:43:03;29.91;37.57
66312;HTU21D;53114;51.138;6.008;2022-08-01T12:45:42;30.08;37.15
66312;HTU21D;53114;51.138;6.008;2022-08-01T12:48:13;30.31;37.39
66312;HTU21D;53114;51.138;6.008;2022-08-01T12:50:43;30.51;36.39
66312;HTU21D;53114;51.138;6.008;2022-08-01T12:53:10;30.45;35.89
66312;HTU21D;53114;51.138;6.008;2022-08-01T12:55:53;30.20;36.23
66312;HTU21D;53114;51.138;6.008;2022-08-01T12:58:21;29.92;36.56
66312;HTU21D;53114;51.138;6.008;2022-08-01T13:00:50;29.59;37.40
66312;HTU21D;53114;51.138;6.008;2022-08-01T13:03:27;29.21;38.46
66312;HTU21D;53114;51.138;6.008;2022-08-01T13:05:58;28.88;40.04
66312;HTU21D;53114;51.138;6.008;2022-08-01T13:08:32;28.54;41.87
66312;HTU21D;53114;51.138;6.008;2022-08-01T13:11:08;28.16;43.86
66312;HTU21D;53114;51.138;6.008;2022-08-01T13:16:10;27.74;47.57
66312;HTU21D;53114;51.138;6.008;2022-08-01T13:18:37;27.65;49.35
66312;HTU21D;53114;51.138;6.008;2022-08-01T13:21:25;27.73;50.27
66312;HTU21D;53114;51.138;6.008;2022-08-01T13:24:12;27.94;50.74
66312;HTU21D;53114;51.138;6.008;2022-08-01T13:26:38;28.18;50.84
66312;HTU21D;53114;51.138;6.008;2022-08-01T13:29:06;28.31;50.66
66312;HTU21D;53114;51.138;6.008;2022-08-01T13:31:37;28.34;50.24
66312;HTU21D;53114;51.138;6.008;2022-08-01T13:34:04;28.34;50.55
66312;HTU21D;53114;51.138;6.008;2022-08-01T13:36:31;28.31;50.43
66312;HTU21D;53114;51.138;6.008;2022-08-01T13:38:58;28.28;50.88
66312;HTU21D;53114;51.138;6.008;2022-08-01T13:41:43;28.25;51.27
66312;HTU21D;53114;51.138;6.008;2022-08-01T13:44:09;28.28;51.32
66312;HTU21D;53114;51.138;6.008;2022-08-01T13:46:37;28.30;50.71
66312;HTU21D;53114;51.138;6.008;2022-08-01T13:49:05;28.30;50.09
66312;HTU21D;53114;51.138;6.008;2022-08-01T13:51:32;28.21;50.61
66312;HTU21D;53114;51.138;6.008;2022-08-01T13:53:58;28.19;50.96
66312;HTU21D;53114;51.138;6.008;2022-08-01T13:56:25;28.13;51.17
66312;HTU21D;53114;51.138;6.008;2022-08-01T13:58:54;28.05;52.06
66312;HTU21D;53114;51.138;6.008;2022-08-01T14:01:19;28.10;51.69
66312;HTU21D;53114;51.138;6.008;2022-08-01T14:03:46;28.23;51.13
66312;HTU21D;53114;51.138;6.008;2022-08-01T14:06:13;28.33;50.42
66312;HTU21D;53114;51.138;6.008;2022-08-01T14:08:39;28.35;50.24
66312;HTU21D;53114;51.138;6.008;2022-08-01T14:11:06;28.35;49.89
66312;HTU21D;53114;51.138;6.008;2022-08-01T14:13:31;28.41;49.76
66312;HTU21D;53114;51.138;6.008;2022-08-01T14:15:59;28.44;50.08
66312;HTU21D;53114;51.138;6.008;2022-08-01T14:18:26;28.55;50.01
66312;HTU21D;53114;51.138;6.008;2022-08-01T14:20:52;28.57;48.93
66312;HTU21D;53114;51.138;6.008;2022-08-01T14:23:18;28.59;48.37
66312;HTU21D;53114;51.138;6.008;2022-08-01T14:25:43;28.58;49.31
66312;HTU21D;53114;51.138;6.008;2022-08-01T14:28:09;28.62;48.19
66312;HTU21D;53114;51.138;6.008;2022-08-01T14:30:36;28.61;47.39
66312;HTU21D;53114;51.138;6.008;2022-08-01T14:33:02;28.52;47.47
66312;HTU21D;53114;51.138;6.008;2022-08-01T14:35:28;28.44;47.07
66312;HTU21D;53114;51.138;6.008;2022-08-01T14:37:54;28.35;47.08
66312;HTU21D;53114;51.138;6.008;2022-08-01T14:40:21;28.24;47.42
66312;HTU21D;53114;51.138;6.008;2022-08-01T14:42:47;28.17;46.93
66312;HTU21D;53114;51.138;6.008;2022-08-01T14:45:13;28.15;46.67
66312;HTU21D;53114;51.138;6.008;2022-08-01T14:47:41;28.19;47.15
66312;HTU21D;53114;51.138;6.008;2022-08-01T14:50:09;28.20;46.86
66312;HTU21D;53114;51.138;6.008;2022-08-01T14:52:36;28.18;46.82
66312;HTU21D;53114;51.138;6.008;2022-08-01T14:55:04;28.18;47.16
66312;HTU21D;53114;51.138;6.008;2022-08-01T14:57:30;28.21;46.83
66312;HTU21D;53114;51.138;6.008;2022-08-01T14:59:56;28.12;46.26
66312;HTU21D;53114;51.138;6.008;2022-08-01T15:02:23;27.97;46.41
66312;HTU21D;53114;51.138;6.008;2022-08-01T15:04:52;27.89;46.25
66312;HTU21D;53114;51.138;6.008;2022-08-01T15:07:18;27.95;46.89
66312;HTU21D;53114;51.138;6.008;2022-08-01T15:09:44;27.96;46.90
66312;HTU21D;53114;51.138;6.008;2022-08-01T15:12:11;28.03;46.41
66312;HTU21D;53114;51.138;6.008;2022-08-01T15:14:37;28.08;46.70
66312;HTU21D;53114;51.138;6.008;2022-08-01T15:17:25;28.10;46.61
66312;HTU21D;53114;51.138;6.008;2022-08-01T15:19:53;28.13;46.73
66312;HTU21D;53114;51.138;6.008;2022-08-01T15:22:21;28.21;46.67
66312;HTU21D;53114;51.138;6.008;2022-08-01T15:24:47;28.34;46.28
66312;HTU21D;53114;51.138;6.008;2022-08-01T15:27:13;28.50;45.85
66312;HTU21D;53114;51.138;6.008;2022-08-01T15:29:39;28.50;45.45
66312;HTU21D;53114;51.138;6.008;2022-08-01T15:32:06;28.55;45.46
66312;HTU21D;53114;51.138;6.008;2022-08-01T15:34:33;28.58;45.25
66312;HTU21D;53114;51.138;6.008;2022-08-01T15:36:59;28.61;45.11
66312;HTU21D;53114;51.138;6.008;2022-08-01T15:39:25;28.43;44.77
66312;HTU21D;53114;51.138;6.008;2022-08-01T15:41:51;28.02;45.20
66312;HTU21D;53114;51.138;6.008;2022-08-01T15:44:17;27.56;46.47
66312;HTU21D;53114;51.138;6.008;2022-08-01T15:46:46;27.29;47.20
66312;HTU21D;53114;51.138;6.008;2022-08-01T15:49:12;27.10;48.29
66312;HTU21D;53114;51.138;6.008;2022-08-01T15:51:38;27.00;48.99
66312;HTU21D;53114;51.138;6.008;2022-08-01T15:54:04;27.10;49.54
66312;HTU21D;53114;51.138;6.008;2022-08-01T15:56:32;27.27;49.15
66312;HTU21D;53114;51.138;6.008;2022-08-01T15:58:58;27.34;48.37